sensor_id;sensor_type;location;lat;lon;timestamp;temperature;humidity
35682;DHT22;21805;51.022;4.782;2023-04-09T00:01:17;9.90;99.90
35682;DHT22;21805;51.022;4.782;2023-04-09T00:06:12;9.80;99.90
35682;DHT22;21805;51.022;4.782;2023-04-09T00:08:38;9.80;99.90
35682;DHT22;21805;51.022;4.782;2023-04-09T00:11:05;9.70;99.90
35682;DHT22;21805;51.022;4.782;2023-04-09T00:13:32;9.70;99.90
35682;DHT22;21805;51.022;4.782;2023-04-09T00:16:00;9.70;99.90
35682;DHT22;21805;51.022;4.782;2023-04-09T00:18:26;9.60;99.90
35682;DHT22;21805;51.022;4.782;2023-04-09T00:20:52;9.70;99.90
35682;DHT22;21805;51.022;4.782;2023-04-09T00:23:19;9.60;99.90
35682;DHT22;21805;51.022;4.782;2023-04-09T00:25:45;9.60;99.90
35682;DHT22;21805;51.022;4.782;2023-04-09T00:28:12;9.60;99.90
35682;DHT22;21805;51.022;4.782;2023-04-09T00:30:38;9.60;99.90
35682;DHT22;21805;51.022;4.782;2023-04-09T00:33:03;9.60;99.90
35682;DHT22;21805;51.022;4.782;2023-04-09T00:38:01;9.50;99.90
35682;DHT22;21805;51.022;4.782;2023-04-09T00:40:27;9.50;99.90
35682;DHT22;21805;51.022;4.782;2023-04-09T00:42:55;9.50;99.90
35682;DHT22;21805;51.022;4.782;2023-04-09T00:45:22;9.50;99.90
35682;DHT22;21805;51.022;4.782;2023-04-09T00:47:55;9.50;99.90
35682;DHT22;21805;51.022;4.782;2023-04-09T00:50:23;9.60;99.90
35682;DHT22;21805;51.022;4.782;2023-04-09T00:52:54;9.50;99.90
35682;DHT22;21805;51.022;4.782;2023-04-09T00:57:50;9.60;99.90
35682;DHT22;21805;51.022;4.782;2023-04-09T01:00:16;9.70;99.90
35682;DHT22;21805;51.022;4.782;2023-04-09T01:02:42;9.80;99.90
35682;DHT22;21805;51.022;4.782;2023-04-09T01:05:09;9.90;99.90
35682;DHT22;21805;51.022;4.782;2023-04-09T01:10:27;10.00;99.90
35682;DHT22;21805;51.022;4.782;2023-04-09T01:13:03;10.00;99.90
35682;DHT22;21805;51.022;4.782;2023-04-09T01:15:33;10.10;99.90
35682;DHT22;21805;51.022;4.782;2023-04-09T01:18:09;10.10;99.90
35682;DHT22;21805;51.022;4.782;2023-04-09T01:20:40;10.10;99.90
35682;DHT22;21805;51.022;4.782;2023-04-09T01:26:00;10.10;99.90
35682;DHT22;21805;51.022;4.782;2023-04-09T01:28:33;10.10;99.90
35682;DHT22;21805;51.022;4.782;2023-04-09T01:31:20;10.20;99.90
35682;DHT22;21805;51.022;4.782;2023-04-09T01:33:49;10.30;99.90
35682;DHT22;21805;51.022;4.782;2023-04-09T01:41:19;10.30;99.90
35682;DHT22;21805;51.022;4.782;2023-04-09T01:43:50;10.30;99.90
35682;DHT22;21805;51.022;4.782;2023-04-09T01:46:21;10.30;99.90
35682;DHT22;21805;51.022;4.782;2023-04-09T01:51:32;10.40;99.90
35682;DHT22;21805;51.022;4.782;2023-04-09T01:53:59;10.50;99.90
35682;DHT22;21805;51.022;4.782;2023-04-09T01:56:43;10.50;99.90
35682;DHT22;21805;51.022;4.782;2023-04-09T01:59:09;10.50;99.90
35682;DHT22;21805;51.022;4.782;2023-04-09T02:01:46;10.60;99.90
35682;DHT22;21805;51.022;4.782;2023-04-09T02:04:16;10.60;99.90
35682;DHT22;21805;51.022;4.782;2023-04-09T02:06:52;10.60;99.90
35682;DHT22;21805;51.022;4.782;2023-04-09T02:09:19;10.60;99.90
35682;DHT22;21805;51.022;4.782;2023-04-09T02:11:46;10.60;99.90
35682;DHT22;21805;51.022;4.782;2023-04-09T02:14:13;10.70;99.90
35682;DHT22;21805;51.022;4.782;2023-04-09T02:16:41;10.70;99.90
35682;DHT22;21805;51.022;4.782;2023-04-09T02:19:07;10.70;99.90
35682;DHT22;21805;51.022;4.782;2023-04-09T02:21:36;10.80;99.90
35682;DHT22;21805;51.022;4.782;2023-04-09T02:26:33;10.80;99.90
35682;DHT22;21805;51.022;4.782;2023-04-09T02:29:00;10.70;99.90
35682;DHT22;21805;51.022;4.782;2023-04-09T02:31:26;10.80;99.90
35682;DHT22;21805;51.022;4.782;2023-04-09T02:33:52;10.80;99.90
35682;DHT22;21805;51.022;4.782;2023-04-09T02:38:48;10.90;99.90
35682;DHT22;21805;51.022;4.782;2023-04-09T02:41:17;10.80;99.90
35682;DHT22;21805;51.022;4.782;2023-04-09T02:43:44;10.80;99.90
35682;DHT22;21805;51.022;4.782;2023-04-09T02:46:11;10.70;99.90
35682;DHT22;21805;51.022;4.782;2023-04-09T02:51:07;10.70;99.90
35682;DHT22;21805;51.022;4.782;2023-04-09T02:53:36;10.80;99.90
35682;DHT22;21805;51.022;4.782;2023-04-09T02:56:03;10.80;99.90
35682;DHT22;21805;51.022;4.782;2023-04-09T02:58:29;10.90;99.90
35682;DHT22;21805;51.022;4.782;2023-04-09T03:00:56;10.90;99.90
35682;DHT22;21805;51.022;4.782;2023-04-09T03:05:54;10.80;99.90
35682;DHT22;21805;51.022;4.782;2023-04-09T03:08:21;10.80;99.90
35682;DHT22;21805;51.022;4.782;2023-04-09T03:10:49;10.80;99.90
35682;DHT22;21805;51.022;4.782;2023-04-09T03:13:16;10.80;99.90
35682;DHT22;21805;51.022;4.782;2023-04-09T03:15:45;10.90;99.90
35682;DHT22;21805;51.022;4.782;2023-04-09T03:18:11;10.90;99.90
35682;DHT22;21805;51.022;4.782;2023-04-09T03:20:50;10.90;99.90
35682;DHT22;21805;51.022;4.782;2023-04-09T03:23:17;10.80;99.90
35682;DHT22;21805;51.022;4.782;2023-04-09T03:25:46;10.90;99.90
35682;DHT22;21805;51.022;4.782;2023-04-09T03:28:12;10.80;99.90
35682;DHT22;21805;51.022;4.782;2023-04-09T03:33:56;10.70;99.90
35682;DHT22;21805;51.022;4.782;2023-04-09T03:36:24;10.70;99.90
35682;DHT22;21805;51.022;4.782;2023-04-09T03:38:53;10.60;99.90
35682;DHT22;21805;51.022;4.782;2023-04-09T03:41:21;10.50;99.90
35682;DHT22;21805;51.022;4.782;2023-04-09T03:43:46;10.40;99.90
35682;DHT22;21805;51.022;4.782;2023-04-09T03:46:17;10.40;99.90
35682;DHT22;21805;51.022;4.782;2023-04-09T03:48:43;10.30;99.90
35682;DHT22;21805;51.022;4.782;2023-04-09T03:51:20;10.30;99.90
35682;DHT22;21805;51.022;4.782;2023-04-09T03:54:06;10.20;99.90
35682;DHT22;21805;51.022;4.782;2023-04-09T03:59:04;10.00;99.90
35682;DHT22;21805;51.022;4.782;2023-04-09T04:01:37;10.00;99.90
35682;DHT22;21805;51.022;4.782;2023-04-09T04:04:12;10.00;99.90
35682;DHT22;21805;51.022;4.782;2023-04-09T04:12:13;9.90;99.90
35682;DHT22;21805;51.022;4.782;2023-04-09T04:14:40;9.80;99.90
35682;DHT22;21805;51.022;4.782;2023-04-09T04:17:05;9.80;99.90
35682;DHT22;21805;51.022;4.782;2023-04-09T04:19:31;9.70;99.90
35682;DHT22;21805;51.022;4.782;2023-04-09T04:21:58;9.70;99.90
35682;DHT22;21805;51.022;4.782;2023-04-09T04:24:26;9.60;99.90
35682;DHT22;21805;51.022;4.782;2023-04-09T04:26:56;9.50;99.90
35682;DHT22;21805;51.022;4.782;2023-04-09T04:29:22;9.50;99.90
35682;DHT22;21805;51.022;4.782;2023-04-09T04:31:47;9.40;99.90
35682;DHT22;21805;51.022;4.782;2023-04-09T04:34:13;9.40;99.90
35682;DHT22;21805;51.022;4.782;2023-04-09T04:39:09;9.20;99.90
35682;DHT22;21805;51.022;4.782;2023-04-09T04:41:37;9.20;99.90
35682;DHT22;21805;51.022;4.782;2023-04-09T04:44:02;9.10;99.90
35682;DHT22;21805;51.022;4.782;2023-04-09T04:46:29;9.10;99.90
35682;DHT22;21805;51.022;4.782;2023-04-09T04:48:55;9.10;99.90
35682;DHT22;21805;51.022;4.782;2023-04-09T04:51:23;9.00;99.90
35682;DHT22;21805;51.022;4.782;2023-04-09T04:53:49;9.00;99.90
35682;DHT22;21805;51.022;4.782;2023-04-09T04:56:17;9.00;99.90
35682;DHT22;21805;51.022;4.782;2023-04-09T04:58:43;9.00;99.90
35682;DHT22;21805;51.022;4.782;2023-04-09T05:01:09;9.10;99.90
35682;DHT22;21805;51.022;4.782;2023-04-09T05:03:36;9.10;99.90
35682;DHT22;21805;51.022;4.782;2023-04-09T05:06:08;9.10;99.90
35682;DHT22;21805;51.022;4.782;2023-04-09T05:08:37;9.10;99.90
35682;DHT22;21805;51.022;4.782;2023-04-09T05:11:02;9.10;99.90
35682;DHT22;21805;51.022;4.782;2023-04-09T05:13:29;9.20;99.90
35682;DHT22;21805;51.022;4.782;2023-04-09T05:18:25;9.20;99.90
35682;DHT22;21805;51.022;4.782;2023-04-09T05:20:52;9.20;99.90
35682;DHT22;21805;51.022;4.782;2023-04-09T05:23:18;9.10;99.90
35682;DHT22;21805;51.022;4.782;2023-04-09T05:25:43;9.20;99.90
35682;DHT22;21805;51.022;4.782;2023-04-09T05:28:12;9.20;99.90
35682;DHT22;21805;51.022;4.782;2023-04-09T05:30:39;9.20;99.90
35682;DHT22;21805;51.022;4.782;2023-04-09T05:33:05;9.20;99.90
35682;DHT22;21805;51.022;4.782;2023-04-09T05:35:31;9.20;99.90
35682;DHT22;21805;51.022;4.782;2023-04-09T05:37:58;9.30;99.90
35682;DHT22;21805;51.022;4.782;2023-04-09T05:40:25;9.30;99.90
35682;DHT22;21805;51.022;4.782;2023-04-09T05:42:57;9.30;99.90
35682;DHT22;21805;51.022;4.782;2023-04-09T05:45:23;9.40;99.90
35682;DHT22;21805;51.022;4.782;2023-04-09T05:48:00;9.40;99.90
35682;DHT22;21805;51.022;4.782;2023-04-09T05:50:36;9.50;99.90
35682;DHT22;21805;51.022;4.782;2023-04-09T05:53:05;9.50;99.90
35682;DHT22;21805;51.022;4.782;2023-04-09T05:58:01;9.60;99.90
35682;DHT22;21805;51.022;4.782;2023-04-09T06:00:27;9.60;99.90
35682;DHT22;21805;51.022;4.782;2023-04-09T06:02:56;9.70;99.90
35682;DHT22;21805;51.022;4.782;2023-04-09T06:05:40;9.70;99.90
35682;DHT22;21805;51.022;4.782;2023-04-09T06:08:09;9.80;99.90
35682;DHT22;21805;51.022;4.782;2023-04-09T06:36:37;10.60;99.90
35682;DHT22;21805;51.022;4.782;2023-04-09T06:39:19;10.90;99.90
